Terminal Aerodrome Forecast
Issued by NWS Albany, NY

Home | Current Version | Previous Version | Text Only | Print | Product List | Glossary On
Versions: 1 2 3 4 5 6 7 8 9 10 11 12 13 14 15 16 17 18 19 20 21 22 23 24 25 26 27 28 29 30 31
000
FTUS41 KALY 301700
TAFGFL
TAF
KGFL 301720Z 3018/3118 18005KT P6SM BKN050
     FM310200 VRB03KT P6SM BKN250
     FM310600 VRB03KT P6SM BKN060
     FM311000 18005KT P6SM VCSH BKN040 PROB30 3112/3118 3SM TSRA
      OVC030CB=

USA.gov is the U.S. government's official web portal to all federal, state and local government web resources and services.